createdAt,value
2018-09-30T00:01:47.757Z,1.93
2018-09-30T00:03:53.900Z,2.60
2018-09-30T00:06:00.064Z,2.00
2018-09-30T00:08:06.256Z,2.30
2018-09-30T00:10:12.403Z,2.27
2018-09-30T00:12:18.667Z,1.73
2018-09-30T00:14:25.060Z,2.17
2018-09-30T00:16:31.172Z,2.27
2018-09-30T00:18:37.318Z,2.03
2018-09-30T00:20:43.461Z,2.07
2018-09-30T00:22:49.685Z,2.57
2018-09-30T00:27:05.175Z,2.23
2018-09-30T00:29:11.295Z,1.90
2018-09-30T00:31:17.416Z,2.67
2018-09-30T00:33:24.133Z,1.87
2018-09-30T00:35:30.260Z,1.90
2018-09-30T00:37:36.395Z,2.20
2018-09-30T00:39:42.470Z,1.90
2018-09-30T00:41:48.621Z,2.10
2018-09-30T00:43:54.688Z,2.30
2018-09-30T00:46:00.817Z,2.23
2018-09-30T00:48:07.015Z,2.00
2018-09-30T00:50:13.169Z,1.90
2018-09-30T00:52:19.230Z,1.87
2018-09-30T00:54:25.327Z,1.87
2018-09-30T00:56:31.753Z,2.10
2018-09-30T00:58:37.796Z,1.90
2018-09-30T01:00:43.897Z,2.10
2018-09-30T01:02:49.943Z,2.07
2018-09-30T01:04:56.069Z,1.87
2018-09-30T01:07:02.160Z,2.00
2018-09-30T01:09:11.669Z,2.20
2018-09-30T01:11:17.729Z,1.90
2018-09-30T01:13:23.825Z,2.40
2018-09-30T01:15:30.012Z,2.13
2018-09-30T01:17:36.099Z,1.70
2018-09-30T01:19:42.236Z,2.40
2018-09-30T01:21:48.352Z,2.40
2018-09-30T01:23:55.418Z,2.30
2018-09-30T01:26:01.611Z,2.20
2018-09-30T01:28:07.783Z,2.43
2018-09-30T01:30:13.900Z,2.27
2018-09-30T01:32:20.001Z,2.00
2018-09-30T01:34:26.066Z,2.13
2018-09-30T01:36:32.193Z,2.67
2018-09-30T01:38:39.154Z,2.07
2018-09-30T01:40:45.278Z,2.17
2018-09-30T01:42:51.393Z,2.20
2018-09-30T01:44:57.442Z,2.63
2018-09-30T01:47:03.621Z,1.87
2018-09-30T01:49:09.780Z,2.50
2018-09-30T01:51:15.858Z,2.77
2018-09-30T01:53:22.095Z,2.27
2018-09-30T01:55:28.338Z,2.40
2018-09-30T01:57:34.783Z,2.63
2018-09-30T02:01:38.423Z,2.57
2018-09-30T02:03:44.528Z,2.60
2018-09-30T02:05:50.602Z,1.87
2018-09-30T02:07:57.305Z,2.20
2018-09-30T02:10:03.438Z,2.83
2018-09-30T02:12:09.529Z,2.27
2018-09-30T02:14:24.719Z,2.30
2018-09-30T02:16:32.699Z,2.00
2018-09-30T02:18:38.865Z,1.70
2018-09-30T02:20:45.048Z,2.37
2018-09-30T02:22:51.491Z,2.00
2018-09-30T02:24:58.828Z,2.00
2018-09-30T02:27:04.939Z,2.77
2018-09-30T02:29:11.035Z,2.17
2018-09-30T02:31:17.105Z,2.10
2018-09-30T02:33:23.253Z,1.67
2018-09-30T02:35:29.540Z,2.30
2018-09-30T02:37:35.695Z,1.97
2018-09-30T02:39:41.785Z,2.13
2018-09-30T02:41:48.899Z,2.20
2018-09-30T02:43:55.008Z,1.97
2018-09-30T02:46:01.147Z,2.27
2018-09-30T02:48:07.319Z,1.90
2018-09-30T02:50:13.404Z,1.93
2018-09-30T02:52:19.586Z,1.90
2018-09-30T02:54:26.221Z,2.07
2018-09-30T02:56:32.602Z,2.07
2018-09-30T02:58:39.377Z,1.93
2018-09-30T03:00:45.539Z,2.10
2018-09-30T03:02:51.814Z,1.83
2018-09-30T03:04:58.305Z,1.90
2018-09-30T03:07:09.539Z,1.80
2018-09-30T03:09:18.020Z,1.60
2018-09-30T03:11:24.227Z,2.40
2018-09-30T03:13:30.343Z,1.73
2018-09-30T03:15:36.759Z,1.57
2018-09-30T03:17:43.127Z,1.80
2018-09-30T03:19:49.256Z,1.70
2018-09-30T03:21:55.570Z,1.90
2018-09-30T03:24:01.656Z,1.57
2018-09-30T03:26:07.813Z,1.90
2018-09-30T03:28:13.868Z,1.67
2018-09-30T03:30:21.204Z,1.60
2018-09-30T03:32:28.328Z,1.97
2018-09-30T03:34:35.441Z,1.83
2018-09-30T03:36:42.456Z,2.07
2018-09-30T03:38:49.552Z,2.10
2018-09-30T03:40:57.377Z,1.90
2018-09-30T03:43:05.437Z,1.87
2018-09-30T03:45:13.412Z,1.97
2018-09-30T03:47:20.426Z,2.10
2018-09-30T03:49:28.950Z,2.37
2018-09-30T03:51:36.582Z,2.03
2018-09-30T03:53:43.917Z,2.13
2018-09-30T03:55:50.269Z,1.80
2018-09-30T03:57:56.310Z,2.67
2018-09-30T04:00:02.587Z,1.90
2018-09-30T04:02:08.881Z,2.20
2018-09-30T04:04:14.967Z,1.93
2018-09-30T04:06:21.024Z,1.90
2018-09-30T04:08:27.078Z,1.93
2018-09-30T04:10:33.201Z,1.97
2018-09-30T04:12:39.311Z,2.00
2018-09-30T04:14:45.611Z,2.10
2018-09-30T04:16:51.639Z,1.77
2018-09-30T04:18:57.771Z,2.10
2018-09-30T04:21:03.827Z,1.90
2018-09-30T04:23:09.888Z,2.10
2018-09-30T04:25:15.941Z,1.83
2018-09-30T04:27:22.028Z,2.20
2018-09-30T04:29:28.082Z,1.90
2018-09-30T04:31:34.563Z,2.20
2018-09-30T04:33:40.651Z,2.10
2018-09-30T04:35:46.782Z,1.73
2018-09-30T04:37:52.991Z,2.00
2018-09-30T04:39:59.030Z,2.00
2018-09-30T04:42:05.099Z,2.17
2018-09-30T04:44:11.136Z,2.20
2018-09-30T04:46:18.526Z,2.13
2018-09-30T04:48:24.702Z,2.37
2018-09-30T04:50:30.715Z,2.17
2018-09-30T04:52:36.840Z,2.40
2018-09-30T04:54:42.884Z,1.90
2018-09-30T04:56:49.068Z,1.83
2018-09-30T04:58:55.112Z,2.00
2018-09-30T05:01:01.271Z,2.17
2018-09-30T05:03:07.459Z,1.73
2018-09-30T05:05:13.622Z,2.10
2018-09-30T05:07:19.704Z,2.00
2018-09-30T05:09:25.793Z,2.10
2018-09-30T05:11:31.859Z,2.50
2018-09-30T05:13:38.021Z,1.70
2018-09-30T05:15:44.055Z,2.70
2018-09-30T05:17:50.207Z,2.33
2018-09-30T05:19:56.795Z,1.73
2018-09-30T05:22:02.890Z,2.73
2018-09-30T05:24:09.012Z,2.00
2018-09-30T05:26:15.083Z,2.10
2018-09-30T05:28:21.189Z,1.93
2018-09-30T05:30:27.394Z,2.93
2018-09-30T05:32:33.403Z,2.70
2018-09-30T05:34:39.465Z,2.60
2018-09-30T05:36:45.563Z,2.23
2018-09-30T05:38:51.746Z,2.03
2018-09-30T05:40:57.853Z,2.00
2018-09-30T05:43:03.950Z,2.17
2018-09-30T05:45:10.083Z,1.80
2018-09-30T05:47:16.160Z,2.30
2018-09-30T05:49:22.273Z,2.10
2018-09-30T05:51:28.395Z,2.30
2018-09-30T05:53:35.675Z,2.00
2018-09-30T05:55:41.780Z,1.87
2018-09-30T05:57:47.893Z,1.97
2018-09-30T05:59:54.302Z,2.37
2018-09-30T06:02:00.322Z,3.60
2018-09-30T06:04:07.176Z,3.73
2018-09-30T06:06:13.170Z,5.23
2018-09-30T06:08:19.268Z,3.50
2018-09-30T06:10:25.585Z,3.10
2018-09-30T06:12:31.707Z,3.73
2018-09-30T06:14:37.806Z,2.43
2018-09-30T06:16:44.170Z,3.13
2018-09-30T06:18:50.208Z,3.10
2018-09-30T06:20:56.316Z,2.63
2018-09-30T06:23:02.453Z,2.40
2018-09-30T06:25:08.652Z,2.10
2018-09-30T06:27:14.674Z,2.00
2018-09-30T06:29:20.781Z,2.40
2018-09-30T06:31:27.073Z,2.07
2018-09-30T06:33:33.199Z,2.30
2018-09-30T06:35:39.299Z,2.13
2018-09-30T06:37:45.329Z,2.30
2018-09-30T06:39:51.527Z,2.20
2018-09-30T06:41:57.643Z,2.57
2018-09-30T06:44:03.722Z,2.30
2018-09-30T06:46:10.119Z,2.40
2018-09-30T06:48:16.196Z,3.10
2018-09-30T06:50:22.338Z,2.77
2018-09-30T06:52:28.597Z,3.23
2018-09-30T06:54:34.717Z,3.60
2018-09-30T06:56:40.809Z,4.20
2018-09-30T06:58:46.951Z,2.87
2018-09-30T07:00:53.135Z,3.27
2018-09-30T07:02:59.800Z,2.67
2018-09-30T07:05:06.024Z,2.60
2018-09-30T07:07:12.125Z,2.37
2018-09-30T07:09:18.295Z,2.40
2018-09-30T07:11:24.433Z,2.10
2018-09-30T07:13:30.582Z,2.37
2018-09-30T07:15:36.761Z,2.60
2018-09-30T07:17:42.922Z,2.60
2018-09-30T07:19:49.027Z,2.20
2018-09-30T07:21:55.208Z,2.10
2018-09-30T07:24:01.313Z,2.60
2018-09-30T07:26:07.461Z,2.00
2018-09-30T07:28:13.548Z,2.57
2018-09-30T07:30:19.736Z,2.50
2018-09-30T07:32:25.816Z,2.17
2018-09-30T07:34:32.029Z,2.17
2018-09-30T07:36:38.108Z,2.53
2018-09-30T07:38:46.035Z,2.23
2018-09-30T07:40:52.295Z,2.67
2018-09-30T07:42:58.412Z,2.37
2018-09-30T07:45:04.503Z,2.30
2018-09-30T07:47:10.627Z,2.30
2018-09-30T07:49:17.664Z,2.43
2018-09-30T07:51:23.797Z,2.20
2018-09-30T07:53:29.887Z,2.20
2018-09-30T07:55:36.025Z,3.40
2018-09-30T07:57:42.367Z,3.03
2018-09-30T07:59:48.498Z,2.37
2018-09-30T08:01:54.972Z,2.07
2018-09-30T08:04:01.068Z,2.63
2018-09-30T08:06:08.391Z,3.83
2018-09-30T08:08:14.496Z,2.60
2018-09-30T08:10:20.663Z,3.07
2018-09-30T08:12:33.228Z,3.10
2018-09-30T08:14:40.657Z,2.90
2018-09-30T08:16:50.096Z,2.80
2018-09-30T08:18:57.784Z,3.30
2018-09-30T08:21:06.979Z,3.60
2018-09-30T08:23:15.314Z,2.80
2018-09-30T08:25:22.698Z,4.20
2018-09-30T08:27:29.597Z,3.30
2018-09-30T08:29:38.042Z,2.70
2018-09-30T08:31:46.074Z,2.70
2018-09-30T08:33:54.648Z,2.67
2018-09-30T08:36:07.781Z,3.30
2018-09-30T08:38:21.325Z,2.87
2018-09-30T08:40:35.104Z,2.63
2018-09-30T08:42:44.196Z,3.20
2018-09-30T08:44:54.102Z,3.00
2018-09-30T08:47:04.748Z,3.20
2018-09-30T08:49:12.475Z,3.03
2018-09-30T08:51:22.194Z,3.00
2018-09-30T08:53:30.836Z,3.10
2018-09-30T08:55:38.942Z,2.67
2018-09-30T08:57:47.830Z,3.23
2018-09-30T08:59:57.553Z,2.97
2018-09-30T09:02:06.527Z,3.20
2018-09-30T09:04:14.494Z,2.90
2018-09-30T09:06:25.606Z,3.50
2018-09-30T09:08:34.904Z,3.03
2018-09-30T09:10:45.326Z,2.80
2018-09-30T09:12:53.202Z,3.57
2018-09-30T09:15:05.799Z,3.17
2018-09-30T09:17:14.453Z,2.97
2018-09-30T09:19:27.405Z,3.20
2018-09-30T09:21:37.686Z,2.87
2018-09-30T09:23:49.519Z,2.60
2018-09-30T09:25:58.034Z,2.77
2018-09-30T09:28:04.334Z,2.83
2018-09-30T09:30:10.447Z,3.57
2018-09-30T09:32:16.648Z,2.97
2018-09-30T09:34:22.775Z,2.97
2018-09-30T09:36:28.909Z,3.57
2018-09-30T09:38:35.476Z,3.33
2018-09-30T09:40:41.564Z,2.63
2018-09-30T09:42:47.726Z,2.50
2018-09-30T09:44:53.897Z,4.20
2018-09-30T09:47:00.104Z,3.70
2018-09-30T09:49:06.225Z,3.53
2018-09-30T09:51:17.766Z,2.90
2018-09-30T09:53:31.989Z,3.17
2018-09-30T09:55:43.757Z,3.07
2018-09-30T09:58:18.174Z,2.90
2018-09-30T10:00:39.282Z,2.80
2018-09-30T10:02:57.760Z,3.13
2018-09-30T10:05:16.139Z,2.60
2018-09-30T10:07:29.789Z,2.50
2018-09-30T10:09:36.951Z,2.70
2018-09-30T10:11:44.439Z,2.90
2018-09-30T10:13:52.764Z,3.07
2018-09-30T10:15:59.668Z,2.63
2018-09-30T10:18:05.827Z,3.00
2018-09-30T10:20:11.950Z,2.90
2018-09-30T10:22:18.139Z,3.17
2018-09-30T10:24:24.250Z,3.37
2018-09-30T10:26:30.398Z,2.50
2018-09-30T10:28:36.560Z,2.80
2018-09-30T10:30:42.751Z,2.80
2018-09-30T10:32:48.943Z,6.40
2018-09-30T10:34:55.260Z,4.20
2018-09-30T10:37:01.576Z,2.50
2018-09-30T10:39:11.463Z,3.50
2018-09-30T10:41:20.029Z,3.50
2018-09-30T10:43:27.804Z,2.30
2018-09-30T10:45:36.528Z,3.30
2018-09-30T10:47:43.905Z,2.90
2018-09-30T10:49:51.151Z,2.73
2018-09-30T10:51:58.196Z,3.80
2018-09-30T10:54:05.738Z,3.20
2018-09-30T10:56:12.705Z,2.80
2018-09-30T10:58:19.578Z,3.30
2018-09-30T11:00:27.002Z,2.60
2018-09-30T11:02:33.854Z,2.80
2018-09-30T11:04:40.949Z,2.67
2018-09-30T11:06:48.447Z,2.37
2018-09-30T11:08:55.628Z,2.60
2018-09-30T11:11:02.616Z,2.50
2018-09-30T11:13:09.293Z,2.40
2018-09-30T11:15:16.369Z,2.50
2018-09-30T11:17:23.778Z,3.30
2018-09-30T11:19:30.642Z,2.70
2018-09-30T11:21:37.785Z,2.67
2018-09-30T11:23:44.710Z,3.00
2018-09-30T11:25:50.989Z,3.07
2018-09-30T11:27:57.238Z,3.47
2018-09-30T11:30:03.422Z,3.30
2018-09-30T11:32:09.617Z,2.50
2018-09-30T11:34:15.836Z,2.97
2018-09-30T11:36:21.998Z,2.80
2018-09-30T11:38:28.127Z,2.97
2018-09-30T11:40:34.354Z,3.90
2018-09-30T11:42:40.524Z,2.77
2018-09-30T11:44:46.608Z,3.43
2018-09-30T11:46:52.768Z,3.20
2018-09-30T11:49:00.246Z,2.97
2018-09-30T11:51:07.446Z,3.27
2018-09-30T11:53:14.337Z,2.97
2018-09-30T11:55:22.528Z,3.50
2018-09-30T11:57:34.707Z,3.50
2018-09-30T12:03:08.288Z,3.77
2018-09-30T12:05:14.543Z,2.80
2018-09-30T12:07:20.744Z,4.33
2018-09-30T12:09:27.141Z,4.20
2018-09-30T12:11:33.338Z,4.00
2018-09-30T12:13:39.574Z,4.07
2018-09-30T12:15:45.885Z,4.30
2018-09-30T12:17:52.113Z,4.00
2018-09-30T12:19:58.542Z,3.63
2018-09-30T12:22:04.701Z,3.47
2018-09-30T12:24:10.897Z,3.17
2018-09-30T12:26:17.121Z,4.00
2018-09-30T12:28:23.255Z,3.97
2018-09-30T12:30:29.388Z,3.77
2018-09-30T12:32:35.529Z,3.90
2018-09-30T12:34:41.978Z,3.53
2018-09-30T12:36:48.127Z,3.37
2018-09-30T12:38:54.275Z,4.40
2018-09-30T12:41:00.640Z,3.67
2018-09-30T12:43:06.916Z,3.77
2018-09-30T12:45:13.106Z,3.63
2018-09-30T12:47:19.244Z,3.33
2018-09-30T12:49:25.462Z,3.60
2018-09-30T12:51:31.640Z,3.63
2018-09-30T12:53:37.788Z,3.30
2018-09-30T12:55:44.012Z,3.73
2018-09-30T12:57:50.258Z,3.47
2018-09-30T12:59:56.377Z,3.13
2018-09-30T13:02:02.472Z,3.40
2018-09-30T13:04:09.020Z,3.20
2018-09-30T13:06:15.292Z,3.37
2018-09-30T13:08:21.504Z,4.03
2018-09-30T13:10:27.664Z,3.10
2018-09-30T13:12:33.841Z,3.10
2018-09-30T13:14:40.011Z,3.07
2018-09-30T13:16:46.246Z,3.07
2018-09-30T13:18:52.492Z,2.50
2018-09-30T13:20:58.764Z,2.60
2018-09-30T13:23:04.853Z,2.60
2018-09-30T13:25:11.819Z,2.73
2018-09-30T13:27:18.051Z,2.70
2018-09-30T13:29:25.081Z,2.80
2018-09-30T13:31:31.340Z,2.77
2018-09-30T13:33:37.517Z,2.73
2018-09-30T13:35:43.929Z,2.97
2018-09-30T13:37:50.117Z,2.43
2018-09-30T13:39:56.452Z,2.53
2018-09-30T13:42:02.532Z,2.83
2018-09-30T13:44:08.821Z,1.97
2018-09-30T13:46:15.067Z,3.13
2018-09-30T13:48:21.226Z,2.10
2018-09-30T13:50:27.382Z,2.87
2018-09-30T13:52:33.538Z,2.43
2018-09-30T13:54:39.752Z,3.40
2018-09-30T13:56:46.009Z,2.80
2018-09-30T13:58:52.230Z,3.33
2018-09-30T14:00:59.184Z,2.80
2018-09-30T14:03:05.364Z,2.60
2018-09-30T14:05:11.552Z,2.90
2018-09-30T14:07:17.765Z,2.50
2018-09-30T14:09:23.976Z,2.60
2018-09-30T14:11:30.189Z,2.50
2018-09-30T14:13:37.305Z,2.67
2018-09-30T14:15:43.548Z,2.90
2018-09-30T14:17:49.813Z,3.27
2018-09-30T14:19:56.356Z,2.33
2018-09-30T14:22:02.527Z,2.57
2018-09-30T14:24:08.712Z,2.30
2018-09-30T14:26:14.843Z,2.50
2018-09-30T14:28:20.982Z,2.53
2018-09-30T14:30:27.156Z,2.57
2018-09-30T14:32:33.323Z,2.60
2018-09-30T14:34:39.673Z,2.53
2018-09-30T14:36:46.066Z,2.63
2018-09-30T14:38:52.268Z,2.43
2018-09-30T14:40:58.533Z,2.67
2018-09-30T14:43:04.701Z,2.07
2018-09-30T14:45:10.864Z,2.20
2018-09-30T14:47:17.199Z,2.53
2018-09-30T14:49:23.466Z,2.57
2018-09-30T14:51:29.589Z,2.50
2018-09-30T14:53:35.903Z,2.80
2018-09-30T14:55:42.027Z,2.57
2018-09-30T14:57:48.194Z,2.90
2018-09-30T14:59:54.362Z,2.50
2018-09-30T15:02:00.466Z,2.53
2018-09-30T15:04:06.713Z,2.70
2018-09-30T15:06:13.037Z,2.30
2018-09-30T15:08:19.254Z,2.97
2018-09-30T15:10:25.560Z,2.60
2018-09-30T15:12:35.632Z,2.73
2018-09-30T15:14:41.929Z,3.87
2018-09-30T15:16:48.325Z,2.20
2018-09-30T15:18:54.515Z,3.50
2018-09-30T15:21:00.733Z,2.67
2018-09-30T15:23:07.187Z,2.90
2018-09-30T15:25:13.398Z,2.10
2018-09-30T15:27:19.764Z,2.33
2018-09-30T15:29:25.960Z,3.33
2018-09-30T15:31:32.270Z,2.30
2018-09-30T15:33:38.557Z,2.77
2018-09-30T15:35:44.747Z,2.20
2018-09-30T15:37:51.069Z,2.73
2018-09-30T15:39:57.269Z,2.60
2018-09-30T15:42:03.522Z,2.13
2018-09-30T15:44:09.862Z,2.80
2018-09-30T15:46:16.029Z,2.70
2018-09-30T15:48:22.210Z,2.30
2018-09-30T15:50:28.329Z,1.90
2018-09-30T15:52:34.671Z,2.50
2018-09-30T15:54:40.908Z,2.47
2018-09-30T15:56:47.205Z,2.27
2018-09-30T15:58:53.370Z,2.50
2018-09-30T16:00:59.603Z,2.50
2018-09-30T16:03:05.751Z,2.20
2018-09-30T16:05:11.963Z,3.20
2018-09-30T16:07:18.133Z,2.37
2018-09-30T16:09:24.349Z,2.63
2018-09-30T16:11:30.516Z,2.93
2018-09-30T16:13:36.802Z,2.50
2018-09-30T16:15:42.882Z,2.70
2018-09-30T16:17:48.980Z,2.07
2018-09-30T16:19:55.812Z,2.93
2018-09-30T16:22:02.002Z,2.47
2018-09-30T16:24:07.964Z,3.20
2018-09-30T16:26:14.172Z,2.37
2018-09-30T16:28:20.534Z,2.20
2018-09-30T16:30:26.589Z,2.90
2018-09-30T16:32:33.388Z,4.10
2018-09-30T16:34:39.624Z,3.23
2018-09-30T16:36:45.786Z,3.30
2018-09-30T16:38:51.947Z,3.23
2018-09-30T16:40:58.077Z,3.20
2018-09-30T16:43:04.203Z,2.57
2018-09-30T16:45:10.308Z,2.83
2018-09-30T16:47:16.550Z,3.07
2018-09-30T16:49:22.723Z,2.60
2018-09-30T16:51:29.504Z,2.27
2018-09-30T16:53:35.825Z,2.73
2018-09-30T16:55:42.025Z,2.70
2018-09-30T16:57:48.259Z,2.60
2018-09-30T16:59:54.560Z,2.90
2018-09-30T17:02:00.720Z,3.97
2018-09-30T17:04:08.230Z,3.50
2018-09-30T17:06:14.378Z,3.43
2018-09-30T17:08:20.551Z,3.73
2018-09-30T17:10:26.739Z,4.57
2018-09-30T17:12:32.968Z,3.40
2018-09-30T17:14:39.108Z,3.90
2018-09-30T17:16:45.255Z,3.87
2018-09-30T17:18:51.428Z,4.00
2018-09-30T17:20:57.550Z,3.13
2018-09-30T17:23:03.721Z,2.80
2018-09-30T17:25:09.994Z,2.67
2018-09-30T17:27:16.183Z,3.80
2018-09-30T17:29:22.342Z,3.57
2018-09-30T17:31:28.732Z,3.47
2018-09-30T17:33:34.921Z,4.23
2018-09-30T17:35:41.122Z,5.20
2018-09-30T17:37:47.690Z,4.07
2018-09-30T17:39:54.253Z,4.00
2018-09-30T17:42:00.453Z,3.47
2018-09-30T17:44:06.787Z,2.90
2018-09-30T17:46:12.965Z,2.23
2018-09-30T17:48:19.300Z,2.80
2018-09-30T17:50:25.450Z,2.80
2018-09-30T17:52:32.910Z,3.13
2018-09-30T17:54:39.105Z,2.67
2018-09-30T17:56:51.168Z,3.17
2018-09-30T17:58:58.059Z,3.37
2018-09-30T18:01:04.411Z,2.70
2018-09-30T18:03:10.754Z,3.50
2018-09-30T18:05:17.089Z,2.73
2018-09-30T18:07:23.397Z,4.13
2018-09-30T18:09:29.694Z,4.10
2018-09-30T18:11:35.975Z,6.83
2018-09-30T18:13:42.335Z,4.73
2018-09-30T18:15:48.686Z,4.50
2018-09-30T18:17:55.022Z,3.67
2018-09-30T18:20:01.362Z,4.20
2018-09-30T18:22:07.756Z,3.27
2018-09-30T18:24:14.093Z,2.50
2018-09-30T18:26:20.625Z,4.33
2018-09-30T18:28:27.239Z,3.27
2018-09-30T18:30:33.629Z,2.73
2018-09-30T18:32:39.899Z,3.07
2018-09-30T18:34:46.271Z,3.10
2018-09-30T18:36:53.086Z,2.83
2018-09-30T18:38:59.403Z,2.70
2018-09-30T18:41:05.960Z,2.90
2018-09-30T18:43:12.976Z,3.87
2018-09-30T18:45:19.558Z,3.33
2018-09-30T18:47:26.195Z,2.70
2018-09-30T18:49:32.835Z,3.00
2018-09-30T18:51:39.479Z,4.80
2018-09-30T18:53:46.133Z,5.50
2018-09-30T18:55:52.689Z,4.43
2018-09-30T18:57:59.960Z,5.40
2018-09-30T19:00:06.595Z,3.90
2018-09-30T19:02:13.124Z,3.47
2018-09-30T19:04:19.688Z,4.33
2018-09-30T19:06:26.394Z,4.13
2018-09-30T19:08:32.938Z,3.10
2018-09-30T19:10:39.505Z,3.90
2018-09-30T19:12:46.017Z,3.40
2018-09-30T19:14:52.570Z,3.33
2018-09-30T19:16:59.201Z,3.00
2018-09-30T19:19:06.581Z,3.63
2018-09-30T19:21:13.270Z,3.53
2018-09-30T19:23:19.615Z,2.70
2018-09-30T19:25:25.889Z,2.97
2018-09-30T19:27:32.100Z,3.13
2018-09-30T19:29:38.271Z,2.90
2018-09-30T19:31:44.488Z,3.43
2018-09-30T19:33:50.694Z,3.03
2018-09-30T19:35:57.114Z,3.17
2018-09-30T19:38:03.341Z,3.37
2018-09-30T19:40:10.296Z,2.90
2018-09-30T19:42:16.514Z,3.00
2018-09-30T19:44:22.766Z,2.90
2018-09-30T19:46:29.072Z,2.70
2018-09-30T19:48:35.356Z,2.90
2018-09-30T19:50:41.610Z,3.23
2018-09-30T19:52:47.974Z,2.70
2018-09-30T19:54:54.301Z,2.90
2018-09-30T19:57:00.563Z,2.67
2018-09-30T19:59:06.820Z,2.90
2018-09-30T20:01:12.966Z,2.93
2018-09-30T20:03:19.191Z,2.83
2018-09-30T20:05:25.637Z,3.50
2018-09-30T20:07:31.912Z,2.57
2018-09-30T20:09:38.216Z,2.50
2018-09-30T20:11:44.351Z,2.57
2018-09-30T20:13:50.520Z,3.30
2018-09-30T20:15:56.648Z,2.70
2018-09-30T20:18:02.888Z,3.00
2018-09-30T20:20:09.746Z,2.50
2018-09-30T20:22:15.949Z,2.60
2018-09-30T20:24:23.475Z,3.53
2018-09-30T20:26:29.757Z,3.23
2018-09-30T20:28:36.102Z,13.80
2018-09-30T20:30:42.332Z,12.40
2018-09-30T20:32:51.558Z,6.50
2018-09-30T20:34:57.779Z,7.80
2018-09-30T20:37:04.239Z,8.57
2018-09-30T20:39:10.397Z,8.27
2018-09-30T20:41:16.842Z,6.63
2018-09-30T20:43:23.149Z,4.53
2018-09-30T20:45:29.448Z,4.63
2018-09-30T20:47:35.916Z,3.87
2018-09-30T20:49:42.126Z,3.80
2018-09-30T20:51:48.341Z,4.90
2018-09-30T20:53:54.534Z,4.77
2018-09-30T20:56:00.839Z,4.20
2018-09-30T20:58:07.026Z,5.07
2018-09-30T21:00:13.370Z,4.50
2018-09-30T21:02:19.462Z,4.70
2018-09-30T21:04:25.675Z,4.90
2018-09-30T21:06:33.194Z,4.77
2018-09-30T21:08:39.474Z,4.60
2018-09-30T21:10:45.854Z,4.13
2018-09-30T21:12:52.139Z,4.60
2018-09-30T21:14:58.340Z,4.10
2018-09-30T21:17:04.520Z,4.57
2018-09-30T21:19:10.705Z,4.40
2018-09-30T21:21:16.924Z,5.13
2018-09-30T21:23:23.125Z,4.30
2018-09-30T21:25:29.311Z,4.67
2018-09-30T21:27:35.637Z,5.20
2018-09-30T21:29:41.905Z,4.60
2018-09-30T21:31:48.052Z,4.33
2018-09-30T21:33:54.366Z,3.90
2018-09-30T21:36:00.540Z,4.30
2018-09-30T21:38:06.776Z,4.47
2018-09-30T21:40:12.926Z,4.07
2018-09-30T21:42:19.128Z,4.50
2018-09-30T21:44:25.371Z,5.17
2018-09-30T21:46:31.492Z,4.10
2018-09-30T21:48:37.836Z,4.50
2018-09-30T21:50:43.894Z,5.37
2018-09-30T21:52:50.105Z,4.97
2018-09-30T21:54:56.346Z,4.73
2018-09-30T21:57:02.464Z,4.33
2018-09-30T21:59:08.619Z,4.70
2018-09-30T22:01:14.823Z,4.50
2018-09-30T22:03:20.888Z,4.67
2018-09-30T22:05:27.030Z,4.50
2018-09-30T22:07:33.142Z,4.27
2018-09-30T22:09:39.420Z,3.73
2018-09-30T22:11:45.660Z,4.37
2018-09-30T22:13:51.834Z,4.90
2018-09-30T22:15:59.986Z,3.90
2018-09-30T22:18:06.203Z,4.10
2018-09-30T22:20:13.748Z,4.07
2018-09-30T22:22:19.953Z,4.90
2018-09-30T22:24:26.060Z,5.17
2018-09-30T22:26:32.257Z,4.60
2018-09-30T22:28:38.377Z,5.20
2018-09-30T22:30:44.516Z,4.33
2018-09-30T22:32:50.603Z,4.60
2018-09-30T22:34:56.817Z,5.33
2018-09-30T22:37:02.953Z,4.20
2018-09-30T22:39:09.491Z,4.80
2018-09-30T22:41:15.648Z,4.50
2018-09-30T22:43:21.755Z,4.53
2018-09-30T22:45:27.864Z,5.60
2018-09-30T22:47:34.329Z,4.40
2018-09-30T22:49:40.463Z,5.00
2018-09-30T22:51:46.570Z,4.30
2018-09-30T22:53:52.773Z,4.60
2018-09-30T22:55:58.906Z,4.20
2018-09-30T22:58:05.093Z,4.10
2018-09-30T23:00:11.333Z,5.03
2018-09-30T23:02:17.423Z,4.70
2018-09-30T23:04:23.660Z,4.50
2018-09-30T23:06:29.915Z,4.60
2018-09-30T23:08:36.017Z,4.20
2018-09-30T23:10:42.160Z,5.40
2018-09-30T23:12:48.285Z,5.33
2018-09-30T23:14:54.403Z,5.37
2018-09-30T23:17:00.498Z,5.10
2018-09-30T23:19:06.787Z,4.90
2018-09-30T23:21:12.952Z,4.83
2018-09-30T23:23:19.055Z,4.60
2018-09-30T23:25:25.164Z,4.80
2018-09-30T23:27:31.359Z,4.80
2018-09-30T23:29:37.422Z,4.40
2018-09-30T23:31:43.592Z,5.13
2018-09-30T23:33:49.703Z,4.70
2018-09-30T23:35:55.817Z,4.67
2018-09-30T23:38:01.919Z,4.90
2018-09-30T23:40:08.169Z,4.30
2018-09-30T23:42:14.279Z,4.70
2018-09-30T23:44:20.408Z,4.90
2018-09-30T23:46:26.526Z,4.70
2018-09-30T23:48:32.904Z,4.27
2018-09-30T23:50:39.046Z,4.23
2018-09-30T23:52:45.164Z,4.43
2018-09-30T23:54:51.348Z,5.00
2018-09-30T23:56:57.479Z,4.83
2018-09-30T23:59:03.556Z,4.50
